sensor_id;sensor_type;location;lat;lon;timestamp;P1;durP1;ratioP1;P2;durP2;ratioP2
35877;SDS011;21982;49.804;24.072;2023-02-15T00:01:31;26.15;;;13.55;;
35877;SDS011;21982;49.804;24.072;2023-02-15T00:03:57;28.52;;;14.13;;
35877;SDS011;21982;49.804;24.072;2023-02-15T00:06:23;27.92;;;13.68;;
35877;SDS011;21982;49.804;24.072;2023-02-15T00:08:49;30.05;;;16.30;;
35877;SDS011;21982;49.804;24.072;2023-02-15T00:11:18;24.58;;;14.40;;
35877;SDS011;21982;49.804;24.072;2023-02-15T00:14:14;25.92;;;14.23;;
35877;SDS011;21982;49.804;24.072;2023-02-15T00:17:31;27.98;;;12.90;;
35877;SDS011;21982;49.804;24.072;2023-02-15T00:19:57;31.67;;;15.60;;
35877;SDS011;21982;49.804;24.072;2023-02-15T00:22:22;27.02;;;13.15;;
35877;SDS011;21982;49.804;24.072;2023-02-15T00:24:48;27.33;;;15.30;;
35877;SDS011;21982;49.804;24.072;2023-02-15T00:27:14;25.95;;;14.68;;
35877;SDS011;21982;49.804;24.072;2023-02-15T00:29:40;28.80;;;13.20;;
35877;SDS011;21982;49.804;24.072;2023-02-15T00:32:05;26.35;;;14.02;;
35877;SDS011;21982;49.804;24.072;2023-02-15T00:34:31;30.55;;;14.40;;
35877;SDS011;21982;49.804;24.072;2023-02-15T00:36:56;28.58;;;14.95;;
35877;SDS011;21982;49.804;24.072;2023-02-15T00:39:22;28.45;;;13.90;;
35877;SDS011;21982;49.804;24.072;2023-02-15T00:41:49;27.83;;;16.02;;
35877;SDS011;21982;49.804;24.072;2023-02-15T00:44:14;30.08;;;14.43;;
35877;SDS011;21982;49.804;24.072;2023-02-15T00:46:40;30.95;;;14.50;;
35877;SDS011;21982;49.804;24.072;2023-02-15T00:49:05;31.05;;;15.02;;
35877;SDS011;21982;49.804;24.072;2023-02-15T00:51:31;24.55;;;14.82;;
35877;SDS011;21982;49.804;24.072;2023-02-15T00:53:57;23.58;;;13.35;;
35877;SDS011;21982;49.804;24.072;2023-02-15T00:56:23;27.48;;;14.13;;
35877;SDS011;21982;49.804;24.072;2023-02-15T00:58:48;26.35;;;15.60;;
35877;SDS011;21982;49.804;24.072;2023-02-15T01:01:18;30.27;;;13.80;;
35877;SDS011;21982;49.804;24.072;2023-02-15T01:03:45;30.92;;;16.35;;
35877;SDS011;21982;49.804;24.072;2023-02-15T01:06:12;28.83;;;14.52;;
35877;SDS011;21982;49.804;24.072;2023-02-15T01:08:38;32.17;;;15.68;;
35877;SDS011;21982;49.804;24.072;2023-02-15T01:11:07;25.02;;;14.05;;
35877;SDS011;21982;49.804;24.072;2023-02-15T01:13:34;23.15;;;12.75;;
35877;SDS011;21982;49.804;24.072;2023-02-15T01:16:00;27.90;;;16.10;;
35877;SDS011;21982;49.804;24.072;2023-02-15T01:18:26;30.80;;;14.80;;
35877;SDS011;21982;49.804;24.072;2023-02-15T01:20:51;30.30;;;15.38;;
35877;SDS011;21982;49.804;24.072;2023-02-15T01:23:17;30.67;;;15.90;;
35877;SDS011;21982;49.804;24.072;2023-02-15T01:25:42;26.85;;;13.95;;
35877;SDS011;21982;49.804;24.072;2023-02-15T01:28:08;30.55;;;14.38;;
35877;SDS011;21982;49.804;24.072;2023-02-15T01:30:33;28.48;;;15.05;;
35877;SDS011;21982;49.804;24.072;2023-02-15T01:32:59;29.38;;;14.18;;
35877;SDS011;21982;49.804;24.072;2023-02-15T01:35:26;30.65;;;13.95;;
35877;SDS011;21982;49.804;24.072;2023-02-15T01:37:51;31.35;;;13.93;;
35877;SDS011;21982;49.804;24.072;2023-02-15T01:40:17;35.17;;;17.23;;
35877;SDS011;21982;49.804;24.072;2023-02-15T01:42:43;29.15;;;13.65;;
35877;SDS011;21982;49.804;24.072;2023-02-15T01:47:51;33.58;;;14.80;;
35877;SDS011;21982;49.804;24.072;2023-02-15T01:50:42;29.35;;;15.23;;
35877;SDS011;21982;49.804;24.072;2023-02-15T01:53:24;29.50;;;13.43;;
35877;SDS011;21982;49.804;24.072;2023-02-15T01:56:00;27.88;;;14.32;;
35877;SDS011;21982;49.804;24.072;2023-02-15T01:58:30;27.02;;;14.07;;
35877;SDS011;21982;49.804;24.072;2023-02-15T02:00:59;35.42;;;15.80;;
35877;SDS011;21982;49.804;24.072;2023-02-15T02:06:22;35.83;;;16.20;;
35877;SDS011;21982;49.804;24.072;2023-02-15T02:08:49;37.13;;;17.75;;
35877;SDS011;21982;49.804;24.072;2023-02-15T02:11:15;30.40;;;16.50;;
35877;SDS011;21982;49.804;24.072;2023-02-15T02:13:41;35.22;;;15.98;;
35877;SDS011;21982;49.804;24.072;2023-02-15T02:16:11;31.58;;;16.60;;
35877;SDS011;21982;49.804;24.072;2023-02-15T02:38:28;32.35;;;16.13;;
35877;SDS011;21982;49.804;24.072;2023-02-15T02:46:31;31.38;;;16.55;;
35877;SDS011;21982;49.804;24.072;2023-02-15T02:49:29;32.38;;;17.25;;
35877;SDS011;21982;49.804;24.072;2023-02-15T02:52:01;29.23;;;14.95;;
35877;SDS011;21982;49.804;24.072;2023-02-15T02:54:28;34.92;;;17.33;;
35877;SDS011;21982;49.804;24.072;2023-02-15T02:56:56;33.78;;;16.20;;
35877;SDS011;21982;49.804;24.072;2023-02-15T02:59:32;29.88;;;15.85;;
35877;SDS011;21982;49.804;24.072;2023-02-15T03:02:04;30.92;;;14.65;;
35877;SDS011;21982;49.804;24.072;2023-02-15T03:04:38;35.30;;;16.10;;
35877;SDS011;21982;49.804;24.072;2023-02-15T03:07:08;32.15;;;17.52;;
35877;SDS011;21982;49.804;24.072;2023-02-15T03:09:41;37.33;;;18.83;;
35877;SDS011;21982;49.804;24.072;2023-02-15T03:12:14;31.08;;;16.75;;
35877;SDS011;21982;49.804;24.072;2023-02-15T03:14:44;36.03;;;17.77;;
35877;SDS011;21982;49.804;24.072;2023-02-15T03:17:14;34.58;;;16.67;;
35877;SDS011;21982;49.804;24.072;2023-02-15T03:19:42;28.80;;;15.60;;
35877;SDS011;21982;49.804;24.072;2023-02-15T03:22:14;34.17;;;16.50;;
35877;SDS011;21982;49.804;24.072;2023-02-15T03:27:52;40.25;;;18.60;;
35877;SDS011;21982;49.804;24.072;2023-02-15T03:30:22;38.45;;;19.10;;
35877;SDS011;21982;49.804;24.072;2023-02-15T03:32:50;36.10;;;18.70;;
35877;SDS011;21982;49.804;24.072;2023-02-15T03:35:19;35.30;;;15.68;;
35877;SDS011;21982;49.804;24.072;2023-02-15T03:37:50;35.80;;;17.45;;
35877;SDS011;21982;49.804;24.072;2023-02-15T03:40:29;36.30;;;18.38;;
35877;SDS011;21982;49.804;24.072;2023-02-15T03:43:32;34.55;;;17.35;;
35877;SDS011;21982;49.804;24.072;2023-02-15T03:46:07;42.20;;;21.83;;
35877;SDS011;21982;49.804;24.072;2023-02-15T03:48:41;52.00;;;21.92;;
35877;SDS011;21982;49.804;24.072;2023-02-15T03:51:12;44.50;;;25.23;;
35877;SDS011;21982;49.804;24.072;2023-02-15T03:54:10;52.45;;;26.48;;
35877;SDS011;21982;49.804;24.072;2023-02-15T03:56:59;45.53;;;25.20;;
35877;SDS011;21982;49.804;24.072;2023-02-15T03:59:44;34.72;;;19.15;;
35877;SDS011;21982;49.804;24.072;2023-02-15T04:02:30;44.23;;;20.77;;
35877;SDS011;21982;49.804;24.072;2023-02-15T04:05:29;42.83;;;20.08;;
35877;SDS011;21982;49.804;24.072;2023-02-15T04:07:54;43.47;;;20.38;;
35877;SDS011;21982;49.804;24.072;2023-02-15T04:10:20;44.20;;;19.95;;
35877;SDS011;21982;49.804;24.072;2023-02-15T04:13:04;43.13;;;21.77;;
35877;SDS011;21982;49.804;24.072;2023-02-15T04:15:29;46.20;;;22.63;;
35877;SDS011;21982;49.804;24.072;2023-02-15T04:18:13;40.10;;;20.70;;
35877;SDS011;21982;49.804;24.072;2023-02-15T04:20:40;47.80;;;23.52;;
35877;SDS011;21982;49.804;24.072;2023-02-15T04:23:27;41.92;;;21.35;;
35877;SDS011;21982;49.804;24.072;2023-02-15T04:26:11;47.63;;;21.88;;
35877;SDS011;21982;49.804;24.072;2023-02-15T04:28:36;47.00;;;22.75;;
35877;SDS011;21982;49.804;24.072;2023-02-15T04:31:02;42.30;;;21.60;;
35877;SDS011;21982;49.804;24.072;2023-02-15T04:33:27;51.67;;;22.25;;
35877;SDS011;21982;49.804;24.072;2023-02-15T04:35:53;42.45;;;21.13;;
35877;SDS011;21982;49.804;24.072;2023-02-15T04:38:18;49.28;;;20.80;;
35877;SDS011;21982;49.804;24.072;2023-02-15T04:40:43;47.85;;;22.42;;
35877;SDS011;21982;49.804;24.072;2023-02-15T04:43:09;41.90;;;20.58;;
35877;SDS011;21982;49.804;24.072;2023-02-15T04:45:34;42.60;;;19.33;;
35877;SDS011;21982;49.804;24.072;2023-02-15T04:47:59;36.63;;;18.38;;
35877;SDS011;21982;49.804;24.072;2023-02-15T04:50:25;35.67;;;18.70;;
35877;SDS011;21982;49.804;24.072;2023-02-15T04:52:50;33.08;;;16.73;;
35877;SDS011;21982;49.804;24.072;2023-02-15T04:55:15;36.95;;;19.05;;
35877;SDS011;21982;49.804;24.072;2023-02-15T04:57:41;40.13;;;18.35;;
35877;SDS011;21982;49.804;24.072;2023-02-15T05:00:06;32.42;;;18.55;;
35877;SDS011;21982;49.804;24.072;2023-02-15T05:02:33;38.05;;;17.60;;
35877;SDS011;21982;49.804;24.072;2023-02-15T05:04:59;36.67;;;18.40;;
35877;SDS011;21982;49.804;24.072;2023-02-15T05:07:24;39.47;;;18.02;;
35877;SDS011;21982;49.804;24.072;2023-02-15T05:09:49;38.65;;;17.75;;
35877;SDS011;21982;49.804;24.072;2023-02-15T05:12:15;36.75;;;18.17;;
35877;SDS011;21982;49.804;24.072;2023-02-15T05:14:40;40.08;;;19.38;;
35877;SDS011;21982;49.804;24.072;2023-02-15T05:17:05;37.83;;;18.52;;
35877;SDS011;21982;49.804;24.072;2023-02-15T05:19:31;35.63;;;18.65;;
35877;SDS011;21982;49.804;24.072;2023-02-15T05:21:56;38.05;;;17.70;;
35877;SDS011;21982;49.804;24.072;2023-02-15T05:24:22;30.75;;;17.95;;
35877;SDS011;21982;49.804;24.072;2023-02-15T05:27:06;35.05;;;19.02;;
35877;SDS011;21982;49.804;24.072;2023-02-15T05:29:51;34.97;;;16.80;;
35877;SDS011;21982;49.804;24.072;2023-02-15T05:32:16;43.70;;;19.48;;
35877;SDS011;21982;49.804;24.072;2023-02-15T05:34:42;33.08;;;19.55;;
35877;SDS011;21982;49.804;24.072;2023-02-15T05:37:07;36.08;;;19.50;;
35877;SDS011;21982;49.804;24.072;2023-02-15T05:39:33;44.72;;;21.70;;
35877;SDS011;21982;49.804;24.072;2023-02-15T05:41:59;43.15;;;23.98;;
35877;SDS011;21982;49.804;24.072;2023-02-15T05:44:25;49.13;;;24.13;;
35877;SDS011;21982;49.804;24.072;2023-02-15T05:46:50;48.33;;;25.60;;
35877;SDS011;21982;49.804;24.072;2023-02-15T05:49:16;58.13;;;27.15;;
35877;SDS011;21982;49.804;24.072;2023-02-15T05:51:41;47.45;;;24.17;;
35877;SDS011;21982;49.804;24.072;2023-02-15T05:54:07;50.40;;;25.85;;
35877;SDS011;21982;49.804;24.072;2023-02-15T05:56:32;50.67;;;25.40;;
35877;SDS011;21982;49.804;24.072;2023-02-15T05:58:57;48.58;;;24.33;;
35877;SDS011;21982;49.804;24.072;2023-02-15T06:01:23;50.83;;;25.20;;
35877;SDS011;21982;49.804;24.072;2023-02-15T06:03:48;45.08;;;24.60;;
35877;SDS011;21982;49.804;24.072;2023-02-15T06:06:15;55.78;;;27.27;;
35877;SDS011;21982;49.804;24.072;2023-02-15T06:08:41;53.05;;;25.95;;
35877;SDS011;21982;49.804;24.072;2023-02-15T06:11:07;50.63;;;26.73;;
35877;SDS011;21982;49.804;24.072;2023-02-15T06:13:35;49.70;;;27.73;;
35877;SDS011;21982;49.804;24.072;2023-02-15T06:16:01;56.97;;;28.52;;
35877;SDS011;21982;49.804;24.072;2023-02-15T06:18:26;57.92;;;29.65;;
35877;SDS011;21982;49.804;24.072;2023-02-15T06:20:52;54.60;;;27.88;;
35877;SDS011;21982;49.804;24.072;2023-02-15T06:23:17;63.65;;;29.88;;
35877;SDS011;21982;49.804;24.072;2023-02-15T06:25:44;58.38;;;29.05;;
35877;SDS011;21982;49.804;24.072;2023-02-15T06:28:10;55.38;;;26.38;;
35877;SDS011;21982;49.804;24.072;2023-02-15T06:30:35;56.10;;;26.77;;
35877;SDS011;21982;49.804;24.072;2023-02-15T06:33:01;55.38;;;24.30;;
35877;SDS011;21982;49.804;24.072;2023-02-15T06:35:27;53.88;;;26.85;;
35877;SDS011;21982;49.804;24.072;2023-02-15T06:37:52;52.42;;;26.73;;
35877;SDS011;21982;49.804;24.072;2023-02-15T06:40:17;58.92;;;26.20;;
35877;SDS011;21982;49.804;24.072;2023-02-15T06:42:43;53.25;;;27.85;;
35877;SDS011;21982;49.804;24.072;2023-02-15T06:45:12;62.85;;;31.67;;
35877;SDS011;21982;49.804;24.072;2023-02-15T06:47:46;68.85;;;34.00;;
35877;SDS011;21982;49.804;24.072;2023-02-15T06:50:12;56.33;;;28.67;;
35877;SDS011;21982;49.804;24.072;2023-02-15T06:52:37;65.53;;;33.10;;
35877;SDS011;21982;49.804;24.072;2023-02-15T06:55:02;59.83;;;31.50;;
35877;SDS011;21982;49.804;24.072;2023-02-15T06:57:28;61.95;;;29.85;;
35877;SDS011;21982;49.804;24.072;2023-02-15T06:59:53;76.30;;;32.45;;
35877;SDS011;21982;49.804;24.072;2023-02-15T07:02:19;81.35;;;34.50;;
35877;SDS011;21982;49.804;24.072;2023-02-15T07:04:44;57.30;;;30.63;;
35877;SDS011;21982;49.804;24.072;2023-02-15T07:07:10;61.58;;;28.77;;
35877;SDS011;21982;49.804;24.072;2023-02-15T07:09:36;64.55;;;31.45;;
35877;SDS011;21982;49.804;24.072;2023-02-15T07:12:02;55.33;;;27.20;;
35877;SDS011;21982;49.804;24.072;2023-02-15T07:14:46;65.05;;;28.95;;
35877;SDS011;21982;49.804;24.072;2023-02-15T07:17:12;54.72;;;26.75;;
35877;SDS011;21982;49.804;24.072;2023-02-15T07:19:37;55.70;;;26.05;;
35877;SDS011;21982;49.804;24.072;2023-02-15T07:22:02;43.10;;;22.63;;
35877;SDS011;21982;49.804;24.072;2023-02-15T07:24:29;49.42;;;23.70;;
35877;SDS011;21982;49.804;24.072;2023-02-15T07:26:55;42.33;;;23.65;;
35877;SDS011;21982;49.804;24.072;2023-02-15T07:29:20;58.30;;;25.70;;
35877;SDS011;21982;49.804;24.072;2023-02-15T07:31:46;45.53;;;23.45;;
35877;SDS011;21982;49.804;24.072;2023-02-15T07:34:12;49.20;;;25.88;;
35877;SDS011;21982;49.804;24.072;2023-02-15T07:36:37;45.50;;;24.35;;
35877;SDS011;21982;49.804;24.072;2023-02-15T07:39:03;45.80;;;23.95;;
35877;SDS011;21982;49.804;24.072;2023-02-15T07:41:28;47.75;;;24.75;;
35877;SDS011;21982;49.804;24.072;2023-02-15T07:43:53;41.50;;;19.80;;
35877;SDS011;21982;49.804;24.072;2023-02-15T07:46:19;54.03;;;25.83;;
35877;SDS011;21982;49.804;24.072;2023-02-15T07:48:45;43.83;;;19.45;;
35877;SDS011;21982;49.804;24.072;2023-02-15T07:51:12;39.47;;;18.45;;
35877;SDS011;21982;49.804;24.072;2023-02-15T07:53:39;33.75;;;18.17;;
35877;SDS011;21982;49.804;24.072;2023-02-15T07:56:06;40.50;;;17.77;;
35877;SDS011;21982;49.804;24.072;2023-02-15T07:58:34;52.75;;;21.45;;
35877;SDS011;21982;49.804;24.072;2023-02-15T08:01:27;35.22;;;19.05;;
35877;SDS011;21982;49.804;24.072;2023-02-15T08:03:56;41.45;;;19.08;;
35877;SDS011;21982;49.804;24.072;2023-02-15T08:06:22;38.53;;;19.30;;
35877;SDS011;21982;49.804;24.072;2023-02-15T08:08:49;29.77;;;16.63;;
35877;SDS011;21982;49.804;24.072;2023-02-15T08:13:54;31.63;;;16.08;;
35877;SDS011;21982;49.804;24.072;2023-02-15T08:21:39;37.35;;;19.67;;
35877;SDS011;21982;49.804;24.072;2023-02-15T08:24:16;41.70;;;20.67;;
35877;SDS011;21982;49.804;24.072;2023-02-15T08:26:43;40.28;;;18.40;;
35877;SDS011;21982;49.804;24.072;2023-02-15T08:29:11;27.83;;;14.35;;
35877;SDS011;21982;49.804;24.072;2023-02-15T08:31:38;35.03;;;19.23;;
35877;SDS011;21982;49.804;24.072;2023-02-15T08:34:06;44.72;;;22.00;;
35877;SDS011;21982;49.804;24.072;2023-02-15T08:36:32;32.63;;;18.23;;
35877;SDS011;21982;49.804;24.072;2023-02-15T08:38:58;31.90;;;15.05;;
35877;SDS011;21982;49.804;24.072;2023-02-15T08:41:29;31.92;;;17.35;;
35877;SDS011;21982;49.804;24.072;2023-02-15T08:44:03;28.67;;;16.33;;
35877;SDS011;21982;49.804;24.072;2023-02-15T08:46:31;29.35;;;15.90;;
35877;SDS011;21982;49.804;24.072;2023-02-15T08:48:59;33.28;;;16.98;;
35877;SDS011;21982;49.804;24.072;2023-02-15T08:51:30;30.80;;;15.98;;
35877;SDS011;21982;49.804;24.072;2023-02-15T08:53:59;28.98;;;13.88;;
35877;SDS011;21982;49.804;24.072;2023-02-15T08:56:28;38.75;;;15.63;;
35877;SDS011;21982;49.804;24.072;2023-02-15T08:58:55;29.92;;;14.52;;
35877;SDS011;21982;49.804;24.072;2023-02-15T09:01:25;22.40;;;12.80;;
35877;SDS011;21982;49.804;24.072;2023-02-15T09:03:57;25.48;;;13.00;;
35877;SDS011;21982;49.804;24.072;2023-02-15T09:06:24;24.20;;;12.32;;
35877;SDS011;21982;49.804;24.072;2023-02-15T09:08:50;23.42;;;12.98;;
35877;SDS011;21982;49.804;24.072;2023-02-15T09:11:20;26.67;;;13.57;;
35877;SDS011;21982;49.804;24.072;2023-02-15T09:13:52;27.02;;;12.30;;
35877;SDS011;21982;49.804;24.072;2023-02-15T09:16:20;23.75;;;11.77;;
35877;SDS011;21982;49.804;24.072;2023-02-15T09:18:47;25.42;;;13.07;;
35877;SDS011;21982;49.804;24.072;2023-02-15T09:21:17;28.20;;;14.15;;
35877;SDS011;21982;49.804;24.072;2023-02-15T09:23:45;30.90;;;14.43;;
35877;SDS011;21982;49.804;24.072;2023-02-15T09:26:13;30.48;;;11.30;;
35877;SDS011;21982;49.804;24.072;2023-02-15T09:28:43;23.38;;;11.35;;
35877;SDS011;21982;49.804;24.072;2023-02-15T09:31:13;21.80;;;11.48;;
35877;SDS011;21982;49.804;24.072;2023-02-15T09:33:41;22.00;;;11.10;;
35877;SDS011;21982;49.804;24.072;2023-02-15T09:38:41;21.40;;;10.25;;
35877;SDS011;21982;49.804;24.072;2023-02-15T09:41:28;21.08;;;10.60;;
35877;SDS011;21982;49.804;24.072;2023-02-15T09:55:58;20.90;;;9.80;;
35877;SDS011;21982;49.804;24.072;2023-02-15T10:03:53;24.42;;;12.15;;
35877;SDS011;21982;49.804;24.072;2023-02-15T10:09:19;17.98;;;9.85;;
35877;SDS011;21982;49.804;24.072;2023-02-15T10:17:00;23.77;;;11.57;;
35877;SDS011;21982;49.804;24.072;2023-02-15T10:20:01;20.52;;;10.43;;
35877;SDS011;21982;49.804;24.072;2023-02-15T10:31:14;23.10;;;9.90;;
35877;SDS011;21982;49.804;24.072;2023-02-15T10:36:46;22.70;;;8.98;;
35877;SDS011;21982;49.804;24.072;2023-02-15T10:39:37;19.35;;;10.82;;
35877;SDS011;21982;49.804;24.072;2023-02-15T10:47:50;27.38;;;11.63;;
35877;SDS011;21982;49.804;24.072;2023-02-15T10:50:47;20.38;;;10.07;;
35877;SDS011;21982;49.804;24.072;2023-02-15T10:58:50;20.30;;;11.32;;
35877;SDS011;21982;49.804;24.072;2023-02-15T11:01:40;18.15;;;9.23;;
35877;SDS011;21982;49.804;24.072;2023-02-15T11:04:24;17.25;;;8.52;;
35877;SDS011;21982;49.804;24.072;2023-02-15T11:07:03;15.98;;;8.10;;
35877;SDS011;21982;49.804;24.072;2023-02-15T11:09:35;16.40;;;8.00;;
35877;SDS011;21982;49.804;24.072;2023-02-15T11:12:03;16.60;;;8.00;;
35877;SDS011;21982;49.804;24.072;2023-02-15T11:14:37;19.10;;;9.10;;
35877;SDS011;21982;49.804;24.072;2023-02-15T11:17:12;16.77;;;10.23;;
35877;SDS011;21982;49.804;24.072;2023-02-15T11:19:43;17.83;;;9.07;;
35877;SDS011;21982;49.804;24.072;2023-02-15T11:22:30;21.45;;;9.85;;
35877;SDS011;21982;49.804;24.072;2023-02-15T11:24:58;16.23;;;8.85;;
35877;SDS011;21982;49.804;24.072;2023-02-15T11:27:26;15.30;;;8.98;;
35877;SDS011;21982;49.804;24.072;2023-02-15T11:30:05;17.10;;;9.48;;
35877;SDS011;21982;49.804;24.072;2023-02-15T11:32:40;16.17;;;9.98;;
35877;SDS011;21982;49.804;24.072;2023-02-15T11:37:36;14.80;;;9.25;;
35877;SDS011;21982;49.804;24.072;2023-02-15T11:40:18;16.80;;;9.43;;
35877;SDS011;21982;49.804;24.072;2023-02-15T11:42:56;17.38;;;10.18;;
35877;SDS011;21982;49.804;24.072;2023-02-15T11:45:30;19.00;;;10.75;;
35877;SDS011;21982;49.804;24.072;2023-02-15T11:47:57;17.20;;;10.10;;
35877;SDS011;21982;49.804;24.072;2023-02-15T11:50:25;17.98;;;9.70;;
35877;SDS011;21982;49.804;24.072;2023-02-15T11:52:57;17.23;;;9.82;;
35877;SDS011;21982;49.804;24.072;2023-02-15T11:55:26;17.65;;;9.00;;
35877;SDS011;21982;49.804;24.072;2023-02-15T11:57:59;17.73;;;10.23;;
35877;SDS011;21982;49.804;24.072;2023-02-15T12:00:39;17.00;;;9.50;;
35877;SDS011;21982;49.804;24.072;2023-02-15T12:03:09;19.67;;;10.55;;
35877;SDS011;21982;49.804;24.072;2023-02-15T12:05:45;15.65;;;9.32;;
35877;SDS011;21982;49.804;24.072;2023-02-15T12:08:20;17.65;;;8.50;;
35877;SDS011;21982;49.804;24.072;2023-02-15T12:13:56;25.67;;;10.25;;
35877;SDS011;21982;49.804;24.072;2023-02-15T12:16:32;29.58;;;11.57;;
35877;SDS011;21982;49.804;24.072;2023-02-15T12:19:17;17.38;;;8.85;;
35877;SDS011;21982;49.804;24.072;2023-02-15T12:21:48;15.07;;;8.93;;
35877;SDS011;21982;49.804;24.072;2023-02-15T12:24:21;19.70;;;9.80;;
35877;SDS011;21982;49.804;24.072;2023-02-15T12:26:56;16.88;;;8.40;;
35877;SDS011;21982;49.804;24.072;2023-02-15T12:29:26;16.07;;;9.67;;
35877;SDS011;21982;49.804;24.072;2023-02-15T12:31:55;16.17;;;8.95;;
35877;SDS011;21982;49.804;24.072;2023-02-15T12:34:26;15.63;;;8.75;;
35877;SDS011;21982;49.804;24.072;2023-02-15T12:36:56;16.65;;;9.00;;
35877;SDS011;21982;49.804;24.072;2023-02-15T12:39:27;14.63;;;8.00;;
35877;SDS011;21982;49.804;24.072;2023-02-15T12:44:31;15.07;;;8.40;;
35877;SDS011;21982;49.804;24.072;2023-02-15T12:49:43;15.32;;;9.30;;
35877;SDS011;21982;49.804;24.072;2023-02-15T12:54:45;16.48;;;8.55;;
35877;SDS011;21982;49.804;24.072;2023-02-15T12:59:49;17.27;;;8.52;;
35877;SDS011;21982;49.804;24.072;2023-02-15T13:02:19;25.95;;;10.57;;
35877;SDS011;21982;49.804;24.072;2023-02-15T13:04:48;16.52;;;8.45;;
35877;SDS011;21982;49.804;24.072;2023-02-15T13:07:15;14.35;;;8.20;;
35877;SDS011;21982;49.804;24.072;2023-02-15T13:09:41;15.38;;;8.77;;
35877;SDS011;21982;49.804;24.072;2023-02-15T13:12:17;15.52;;;7.97;;
35877;SDS011;21982;49.804;24.072;2023-02-15T13:14:54;13.30;;;7.72;;
35877;SDS011;21982;49.804;24.072;2023-02-15T13:17:23;16.45;;;8.02;;
35877;SDS011;21982;49.804;24.072;2023-02-15T13:19:57;15.57;;;8.40;;
35877;SDS011;21982;49.804;24.072;2023-02-15T13:22:40;15.38;;;8.18;;
35877;SDS011;21982;49.804;24.072;2023-02-15T13:25:22;16.58;;;9.38;;
35877;SDS011;21982;49.804;24.072;2023-02-15T13:27:51;16.67;;;8.10;;
35877;SDS011;21982;49.804;24.072;2023-02-15T13:30:30;17.08;;;8.65;;
35877;SDS011;21982;49.804;24.072;2023-02-15T13:33:03;14.63;;;8.60;;
35877;SDS011;21982;49.804;24.072;2023-02-15T13:35:35;14.73;;;8.30;;
35877;SDS011;21982;49.804;24.072;2023-02-15T13:38:16;15.45;;;8.10;;
35877;SDS011;21982;49.804;24.072;2023-02-15T13:40:52;16.40;;;8.13;;
35877;SDS011;21982;49.804;24.072;2023-02-15T13:52:12;15.27;;;8.20;;
35877;SDS011;21982;49.804;24.072;2023-02-15T13:57:51;15.95;;;8.48;;
35877;SDS011;21982;49.804;24.072;2023-02-15T14:00:24;17.05;;;8.30;;
35877;SDS011;21982;49.804;24.072;2023-02-15T14:03:10;17.73;;;8.73;;
35877;SDS011;21982;49.804;24.072;2023-02-15T14:11:29;20.40;;;10.13;;
35877;SDS011;21982;49.804;24.072;2023-02-15T14:16:58;22.40;;;9.68;;
35877;SDS011;21982;49.804;24.072;2023-02-15T14:22:02;16.58;;;9.38;;
35877;SDS011;21982;49.804;24.072;2023-02-15T14:24:41;21.85;;;9.85;;
35877;SDS011;21982;49.804;24.072;2023-02-15T14:30:09;19.02;;;9.85;;
35877;SDS011;21982;49.804;24.072;2023-02-15T14:32:42;18.98;;;8.77;;
35877;SDS011;21982;49.804;24.072;2023-02-15T14:35:13;20.55;;;9.18;;
35877;SDS011;21982;49.804;24.072;2023-02-15T14:37:50;16.98;;;9.98;;
35877;SDS011;21982;49.804;24.072;2023-02-15T14:46:36;16.95;;;7.45;;
35877;SDS011;21982;49.804;24.072;2023-02-15T14:49:23;16.98;;;8.27;;
35877;SDS011;21982;49.804;24.072;2023-02-15T14:56:42;18.10;;;8.60;;
35877;SDS011;21982;49.804;24.072;2023-02-15T15:01:51;16.83;;;8.13;;
35877;SDS011;21982;49.804;24.072;2023-02-15T15:04:25;16.42;;;7.18;;
35877;SDS011;21982;49.804;24.072;2023-02-15T15:09:29;18.25;;;7.97;;
35877;SDS011;21982;49.804;24.072;2023-02-15T15:14:43;21.08;;;9.40;;
35877;SDS011;21982;49.804;24.072;2023-02-15T15:17:13;14.95;;;8.13;;
35877;SDS011;21982;49.804;24.072;2023-02-15T15:20:04;20.40;;;8.70;;
35877;SDS011;21982;49.804;24.072;2023-02-15T15:22:36;17.45;;;8.75;;
35877;SDS011;21982;49.804;24.072;2023-02-15T15:25:03;18.60;;;8.23;;
35877;SDS011;21982;49.804;24.072;2023-02-15T15:27:44;20.13;;;10.27;;
35877;SDS011;21982;49.804;24.072;2023-02-15T15:32:43;19.23;;;9.95;;
35877;SDS011;21982;49.804;24.072;2023-02-15T15:38:05;18.88;;;9.20;;
35877;SDS011;21982;49.804;24.072;2023-02-15T15:46:06;18.55;;;8.40;;
35877;SDS011;21982;49.804;24.072;2023-02-15T15:48:37;19.95;;;9.68;;
35877;SDS011;21982;49.804;24.072;2023-02-15T15:51:06;18.95;;;10.02;;
35877;SDS011;21982;49.804;24.072;2023-02-15T15:53:43;23.00;;;9.18;;
35877;SDS011;21982;49.804;24.072;2023-02-15T15:56:16;18.50;;;9.35;;
35877;SDS011;21982;49.804;24.072;2023-02-15T15:58:46;19.13;;;9.30;;
35877;SDS011;21982;49.804;24.072;2023-02-15T16:01:23;21.20;;;10.52;;
35877;SDS011;21982;49.804;24.072;2023-02-15T16:03:55;18.42;;;8.82;;
35877;SDS011;21982;49.804;24.072;2023-02-15T16:06:26;21.45;;;10.05;;
35877;SDS011;21982;49.804;24.072;2023-02-15T16:08:56;22.75;;;11.73;;
35877;SDS011;21982;49.804;24.072;2023-02-15T16:11:25;19.67;;;10.25;;
35877;SDS011;21982;49.804;24.072;2023-02-15T16:13:54;21.95;;;9.68;;
35877;SDS011;21982;49.804;24.072;2023-02-15T16:16:21;24.02;;;11.68;;
35877;SDS011;21982;49.804;24.072;2023-02-15T16:18:49;18.55;;;10.95;;
35877;SDS011;21982;49.804;24.072;2023-02-15T16:21:23;14.98;;;9.23;;
35877;SDS011;21982;49.804;24.072;2023-02-15T16:23:57;20.58;;;10.13;;
35877;SDS011;21982;49.804;24.072;2023-02-15T16:29:28;21.92;;;10.88;;
35877;SDS011;21982;49.804;24.072;2023-02-15T16:34:31;22.00;;;11.27;;
35877;SDS011;21982;49.804;24.072;2023-02-15T16:37:12;19.45;;;10.50;;
35877;SDS011;21982;49.804;24.072;2023-02-15T16:39:40;24.42;;;10.75;;
35877;SDS011;21982;49.804;24.072;2023-02-15T16:42:07;22.13;;;10.27;;
35877;SDS011;21982;49.804;24.072;2023-02-15T16:44:34;22.13;;;10.30;;
35877;SDS011;21982;49.804;24.072;2023-02-15T16:46:59;22.88;;;12.98;;
35877;SDS011;21982;49.804;24.072;2023-02-15T16:49:26;23.02;;;12.48;;
35877;SDS011;21982;49.804;24.072;2023-02-15T16:51:57;22.08;;;10.68;;
35877;SDS011;21982;49.804;24.072;2023-02-15T16:54:26;22.55;;;10.75;;
35877;SDS011;21982;49.804;24.072;2023-02-15T16:56:53;21.35;;;10.52;;
35877;SDS011;21982;49.804;24.072;2023-02-15T17:01:58;23.25;;;11.35;;
35877;SDS011;21982;49.804;24.072;2023-02-15T17:07:05;20.98;;;11.50;;
35877;SDS011;21982;49.804;24.072;2023-02-15T17:09:44;21.50;;;11.27;;
35877;SDS011;21982;49.804;24.072;2023-02-15T17:18:10;22.30;;;12.30;;
35877;SDS011;21982;49.804;24.072;2023-02-15T17:20:37;21.38;;;10.15;;
35877;SDS011;21982;49.804;24.072;2023-02-15T17:23:29;27.75;;;11.52;;
35877;SDS011;21982;49.804;24.072;2023-02-15T17:25:57;26.90;;;11.13;;
35877;SDS011;21982;49.804;24.072;2023-02-15T17:28:25;25.90;;;11.57;;
35877;SDS011;21982;49.804;24.072;2023-02-15T17:30:54;25.80;;;12.68;;
35877;SDS011;21982;49.804;24.072;2023-02-15T17:38:35;22.05;;;11.00;;